createdAt,value
2023-04-02T00:00:32.494Z,9.747466
2023-04-02T00:01:32.422Z,9.747434
2023-04-02T00:02:32.696Z,9.747427
2023-04-02T00:03:32.448Z,9.747395
2023-04-02T00:04:32.397Z,9.747429
2023-04-02T00:05:32.510Z,9.747365
2023-04-02T00:06:32.382Z,9.747457
2023-04-02T00:07:32.364Z,9.747355
2023-04-02T00:08:32.377Z,9.747327
2023-04-02T00:09:32.360Z,9.747370
2023-04-02T00:10:33.381Z,9.747427
2023-04-02T00:11:32.340Z,9.747425
2023-04-02T00:12:32.335Z,9.747400
2023-04-02T00:13:32.327Z,9.747367
2023-04-02T00:14:32.318Z,9.747360
2023-04-02T00:15:32.653Z,9.747419
2023-04-02T00:16:32.374Z,9.747432
2023-04-02T00:17:32.291Z,9.747414
2023-04-02T00:18:32.310Z,9.747405
2023-04-02T00:19:32.271Z,9.747355
2023-04-02T00:20:32.305Z,9.747379
2023-04-02T00:21:32.260Z,9.747444
2023-04-02T00:22:32.259Z,9.747414
2023-04-02T00:23:32.260Z,9.747359
2023-04-02T00:24:32.278Z,9.747368
2023-04-02T00:25:32.379Z,9.747355
2023-04-02T00:26:32.262Z,9.747338
2023-04-02T00:27:32.267Z,9.747394
2023-04-02T00:28:32.222Z,9.747377
2023-04-02T00:29:32.194Z,9.747369
2023-04-02T00:30:32.266Z,9.747384
2023-04-02T00:31:32.210Z,9.747529
2023-04-02T00:32:32.193Z,9.747446
2023-04-02T00:33:32.160Z,9.747493
2023-04-02T00:34:32.168Z,9.747436
2023-04-02T00:35:32.209Z,9.747436
2023-04-02T00:36:32.200Z,9.747369
2023-04-02T00:37:32.144Z,9.747323
2023-04-02T00:38:32.150Z,9.747363
2023-04-02T00:39:32.149Z,9.747387
2023-04-02T00:40:32.158Z,9.747393
2023-04-02T00:41:32.179Z,9.747429
2023-04-02T00:42:32.106Z,9.747372
2023-04-02T00:43:32.103Z,9.747278
2023-04-02T00:44:32.086Z,9.747423
2023-04-02T00:45:32.217Z,9.747416
2023-04-02T00:46:32.238Z,9.747410
2023-04-02T00:47:32.108Z,9.747408
2023-04-02T00:48:32.066Z,9.747337
2023-04-02T00:49:32.061Z,9.747366
2023-04-02T00:50:32.042Z,9.747438
2023-04-02T00:51:32.115Z,9.747394
2023-04-02T00:52:32.044Z,9.747350
2023-04-02T00:53:32.029Z,9.747505
2023-04-02T00:54:32.010Z,9.747385
2023-04-02T00:55:32.040Z,9.747391
2023-04-02T00:56:32.022Z,9.747497
2023-04-02T00:57:32.005Z,9.747303
2023-04-02T00:58:31.992Z,9.747357
2023-04-02T00:59:32.009Z,9.747322
2023-04-02T01:00:31.966Z,9.747385
2023-04-02T01:01:32.024Z,9.747327
2023-04-02T01:02:32.224Z,9.747288
2023-04-02T01:03:32.102Z,9.747280
2023-04-02T01:04:31.937Z,9.747245
2023-04-02T01:05:31.998Z,9.747306
2023-04-02T01:06:31.939Z,9.747314
2023-04-02T01:07:31.924Z,9.747382
2023-04-02T01:08:31.921Z,9.747477
2023-04-02T01:09:31.900Z,9.747461
2023-04-02T01:10:31.900Z,9.747441
2023-04-02T01:11:31.903Z,9.747485
2023-04-02T01:12:31.860Z,9.747392
2023-04-02T01:13:31.852Z,9.747357
2023-04-02T01:14:31.871Z,9.747485
2023-04-02T01:15:31.899Z,9.747393
2023-04-02T01:16:31.894Z,9.747457
2023-04-02T01:17:31.891Z,9.747412
2023-04-02T01:18:31.829Z,9.747334
2023-04-02T01:19:31.838Z,9.747363
2023-04-02T01:20:31.801Z,9.747334
2023-04-02T01:21:31.789Z,9.747417
2023-04-02T01:22:31.831Z,9.747399
2023-04-02T01:23:31.778Z,9.747437
2023-04-02T01:24:31.784Z,9.747346
2023-04-02T01:25:32.507Z,9.747226
2023-04-02T01:26:31.818Z,9.747337
2023-04-02T01:27:31.751Z,9.747410
2023-04-02T01:28:31.790Z,9.747466
2023-04-02T01:29:31.765Z,9.747408
2023-04-02T01:30:31.743Z,9.747244
2023-04-02T01:31:31.808Z,9.747437
2023-04-02T01:32:31.790Z,9.747391
2023-04-02T01:33:31.725Z,9.747491
2023-04-02T01:34:31.701Z,9.747458
2023-04-02T01:35:31.716Z,9.747453
2023-04-02T01:36:31.774Z,9.747373
2023-04-02T01:37:31.720Z,9.747318
2023-04-02T01:38:31.713Z,9.747403
2023-04-02T01:39:31.673Z,9.747481
2023-04-02T01:40:31.674Z,9.747437
2023-04-02T01:41:31.654Z,9.747586
2023-04-02T01:42:31.679Z,9.747488
2023-04-02T01:43:31.639Z,9.747531
2023-04-02T01:44:31.642Z,9.747411
2023-04-02T01:45:31.628Z,9.747447
2023-04-02T01:46:31.651Z,9.747495
2023-04-02T01:47:31.692Z,9.747458
2023-04-02T01:48:31.603Z,9.747398
2023-04-02T01:49:31.590Z,9.747396
2023-04-02T01:50:31.735Z,9.747240
2023-04-02T01:51:31.580Z,9.747431
2023-04-02T01:52:31.596Z,9.747493
2023-04-02T01:53:31.558Z,9.747407
2023-04-02T01:54:31.584Z,9.747369
2023-04-02T01:55:31.609Z,9.747581
2023-04-02T01:56:31.543Z,9.747585
2023-04-02T01:57:31.666Z,9.747465
2023-04-02T01:58:31.681Z,9.747363
2023-04-02T01:59:31.520Z,9.747378
2023-04-02T02:00:31.530Z,9.747416
2023-04-02T02:01:31.537Z,9.747419
2023-04-02T02:02:31.615Z,9.747456
2023-04-02T02:03:31.480Z,9.747468
2023-04-02T02:04:31.484Z,9.747351
2023-04-02T02:05:31.496Z,9.747351
2023-04-02T02:06:31.503Z,9.747360
2023-04-02T02:07:31.478Z,9.747272
2023-04-02T02:08:32.490Z,9.747388
2023-04-02T02:09:31.455Z,9.747468
2023-04-02T02:10:31.449Z,9.747397
2023-04-02T02:11:31.441Z,9.747383
2023-04-02T02:12:31.468Z,9.747455
2023-04-02T02:13:31.408Z,9.747436
2023-04-02T02:14:31.417Z,9.747290
2023-04-02T02:15:31.416Z,9.747429
2023-04-02T02:16:31.399Z,9.747379
2023-04-02T02:17:31.455Z,9.747401
2023-04-02T02:18:31.374Z,9.747387
2023-04-02T02:19:31.372Z,9.747486
2023-04-02T02:20:31.385Z,9.747467
2023-04-02T02:21:31.385Z,9.747333
2023-04-02T02:22:31.378Z,9.747323
2023-04-02T02:23:31.341Z,9.747323
2023-04-02T02:24:31.347Z,9.747369
2023-04-02T02:25:31.327Z,9.747561
2023-04-02T02:26:31.317Z,9.747437
2023-04-02T02:27:31.344Z,9.747437
2023-04-02T02:28:31.323Z,9.747437
2023-04-02T02:29:31.310Z,9.747439
2023-04-02T02:30:31.306Z,9.747439
2023-04-02T02:31:31.296Z,9.747458
2023-04-02T02:32:31.322Z,9.747432
2023-04-02T02:33:31.243Z,9.747386
2023-04-02T02:34:32.257Z,9.747324
2023-04-02T02:35:31.262Z,9.747499
2023-04-02T02:36:31.289Z,9.747366
2023-04-02T02:37:31.277Z,9.747471
2023-04-02T02:38:31.222Z,9.747377
2023-04-02T02:39:31.233Z,9.747559
2023-04-02T02:40:31.242Z,9.747330
2023-04-02T02:41:31.203Z,9.747440
2023-04-02T02:42:31.269Z,9.747393
2023-04-02T02:43:31.202Z,9.747423
2023-04-02T02:44:31.224Z,9.747450
2023-04-02T02:45:31.173Z,9.747414
2023-04-02T02:46:31.184Z,9.747449
2023-04-02T02:47:31.215Z,9.747417
2023-04-02T02:48:31.134Z,9.747274
2023-04-02T02:49:31.156Z,9.747431
2023-04-02T02:50:31.172Z,9.747415
2023-04-02T02:51:31.125Z,9.747503
2023-04-02T02:52:31.154Z,9.747449
2023-04-02T02:53:31.122Z,9.747478
2023-04-02T02:54:31.109Z,9.747416
2023-04-02T02:55:31.114Z,9.747516
2023-04-02T02:56:31.095Z,9.747355
2023-04-02T02:57:31.188Z,9.747434
2023-04-02T02:58:31.133Z,9.747514
2023-04-02T02:59:31.095Z,9.747540
2023-04-02T03:00:31.071Z,9.747542
2023-04-02T03:01:31.097Z,9.747534
2023-04-02T03:02:31.115Z,9.747569
2023-04-02T03:03:31.155Z,9.747597
2023-04-02T03:04:31.039Z,9.747575
2023-04-02T03:05:31.043Z,9.747545
2023-04-02T03:06:31.022Z,9.747647
2023-04-02T03:07:31.059Z,9.747548
2023-04-02T03:08:31.007Z,9.747430
2023-04-02T03:09:30.991Z,9.747484
2023-04-02T03:10:30.994Z,9.747533
2023-04-02T03:11:30.978Z,9.747508
2023-04-02T03:12:30.993Z,9.747516
2023-04-02T03:13:30.964Z,9.747539
2023-04-02T03:14:30.982Z,9.747521
2023-04-02T03:15:31.001Z,9.747428
2023-04-02T03:16:30.962Z,9.747474
2023-04-02T03:17:31.003Z,9.747425
2023-04-02T03:18:30.930Z,9.747503
2023-04-02T03:19:30.921Z,9.747517
2023-04-02T03:20:30.921Z,9.747484
2023-04-02T03:21:30.901Z,9.747376
2023-04-02T03:22:30.920Z,9.747422
2023-04-02T03:23:30.887Z,9.747417
2023-04-02T03:24:30.894Z,9.747568
2023-04-02T03:25:30.866Z,9.747522
2023-04-02T03:26:30.862Z,9.747438
2023-04-02T03:27:31.915Z,9.747551
2023-04-02T03:28:30.889Z,9.747454
2023-04-02T03:29:30.845Z,9.747373
2023-04-02T03:30:30.844Z,9.747401
2023-04-02T03:31:30.855Z,9.747450
2023-04-02T03:32:30.916Z,9.747628
2023-04-02T03:33:30.832Z,9.747625
2023-04-02T03:34:30.828Z,9.747420
2023-04-02T03:35:30.803Z,9.747453
2023-04-02T03:36:30.791Z,9.747511
2023-04-02T03:37:30.805Z,9.747502
2023-04-02T03:38:30.811Z,9.747446
2023-04-02T03:39:30.785Z,9.747420
2023-04-02T03:40:30.763Z,9.747387
2023-04-02T03:41:30.768Z,9.747182
2023-04-02T03:42:31.755Z,9.747310
2023-04-02T03:43:30.766Z,9.747485
2023-04-02T03:44:30.789Z,9.747511
2023-04-02T03:45:30.729Z,9.747392
2023-04-02T03:46:30.743Z,9.747499
2023-04-02T03:47:30.758Z,9.747492
2023-04-02T03:48:30.752Z,9.747501
2023-04-02T03:49:30.704Z,9.747389
2023-04-02T03:50:30.690Z,9.747465
2023-04-02T03:51:30.717Z,9.747430
2023-04-02T03:52:30.680Z,9.747366
2023-04-02T03:53:30.697Z,9.747517
2023-04-02T03:54:30.654Z,9.747510
2023-04-02T03:55:30.645Z,9.747502
2023-04-02T03:56:30.650Z,9.747546
2023-04-02T03:57:30.683Z,9.747346
2023-04-02T03:58:30.654Z,9.747318
2023-04-02T03:59:30.620Z,9.747392
2023-04-02T04:00:30.642Z,9.747519
2023-04-02T04:01:30.639Z,9.747444
2023-04-02T04:02:30.663Z,9.747258
2023-04-02T04:03:30.615Z,9.747367
2023-04-02T04:04:30.754Z,9.747442
2023-04-02T04:05:30.572Z,9.747462
2023-04-02T04:06:30.597Z,9.747535
2023-04-02T04:07:30.574Z,9.747598
2023-04-02T04:08:30.593Z,9.747527
2023-04-02T04:09:30.550Z,9.747464
2023-04-02T04:10:30.546Z,9.747434
2023-04-02T04:11:31.529Z,9.747544
2023-04-02T04:12:30.534Z,9.747499
2023-04-02T04:13:30.542Z,9.747536
2023-04-02T04:14:30.501Z,9.747446
2023-04-02T04:15:30.510Z,9.747436
2023-04-02T04:16:30.530Z,9.747465
2023-04-02T04:17:30.534Z,9.747496
2023-04-02T04:18:30.485Z,9.747522
2023-04-02T04:19:30.457Z,9.747480
2023-04-02T04:20:30.460Z,9.747493
2023-04-02T04:21:30.469Z,9.747575
2023-04-02T04:22:30.547Z,9.747438
2023-04-02T04:23:30.516Z,9.747485
2023-04-02T04:24:30.424Z,9.747423
2023-04-02T04:25:30.491Z,9.747449
2023-04-02T04:26:30.400Z,9.747388
2023-04-02T04:27:30.431Z,9.747262
2023-04-02T04:28:30.435Z,9.747325
2023-04-02T04:29:30.385Z,9.747485
2023-04-02T04:30:30.401Z,9.747306
2023-04-02T04:31:30.400Z,9.747390
2023-04-02T04:32:30.369Z,9.747405
2023-04-02T04:33:30.477Z,9.747430
2023-04-02T04:34:30.367Z,9.747466
2023-04-02T04:35:30.405Z,9.747394
2023-04-02T04:36:30.329Z,9.747506
2023-04-02T04:38:04.530Z,9.747595
2023-04-02T04:38:30.314Z,9.747583
2023-04-02T04:39:30.273Z,9.747487
2023-04-02T04:40:30.265Z,9.747443
2023-04-02T04:41:30.257Z,9.747347
2023-04-02T04:42:30.251Z,9.747279
2023-04-02T04:43:30.279Z,9.747175
2023-04-02T04:44:30.274Z,9.747308
2023-04-02T04:45:31.246Z,9.747433
2023-04-02T04:46:30.353Z,9.747489
2023-04-02T04:47:30.238Z,9.747502
2023-04-02T04:48:30.249Z,9.747448
2023-04-02T04:49:30.194Z,9.747426
2023-04-02T04:50:30.198Z,9.747487
2023-04-02T04:51:30.194Z,9.747445
2023-04-02T04:52:30.174Z,9.747366
2023-04-02T04:53:30.193Z,9.747586
2023-04-02T04:54:30.210Z,9.747477
2023-04-02T04:55:30.158Z,9.747219
2023-04-02T04:56:30.150Z,9.747405
2023-04-02T04:57:30.183Z,9.747507
2023-04-02T04:58:30.162Z,9.747478
2023-04-02T04:59:30.131Z,9.747334
2023-04-02T05:00:30.121Z,9.747475
2023-04-02T05:01:30.133Z,9.747483
2023-04-02T05:02:30.123Z,9.747571
2023-04-02T05:03:30.110Z,9.747494
2023-04-02T05:04:30.273Z,9.747426
2023-04-02T05:05:30.085Z,9.747362
2023-04-02T05:06:30.077Z,9.747449
2023-04-02T05:07:30.067Z,9.747435
2023-04-02T05:08:30.061Z,9.747541
2023-04-02T05:09:30.074Z,9.747506
2023-04-02T05:10:30.042Z,9.747496
2023-04-02T05:11:30.029Z,9.747455
2023-04-02T05:12:30.025Z,9.747418
2023-04-02T05:13:30.022Z,9.747476
2023-04-02T05:14:30.087Z,9.747399
2023-04-02T05:15:30.007Z,9.747512
2023-04-02T05:16:30.078Z,9.747405
2023-04-02T05:17:30.017Z,9.747472
2023-04-02T05:18:29.985Z,9.747486
2023-04-02T05:19:30.002Z,9.747510
2023-04-02T05:20:29.974Z,9.747344
2023-04-02T05:21:29.959Z,9.747396
2023-04-02T05:22:29.947Z,9.747385
2023-04-02T05:23:29.949Z,9.747375
2023-04-02T05:24:29.986Z,9.747326
2023-04-02T05:25:29.931Z,9.747368
2023-04-02T05:26:29.938Z,9.747319
2023-04-02T05:27:29.925Z,9.747403
2023-04-02T05:28:29.906Z,9.747318
2023-04-02T05:29:29.927Z,9.747346
2023-04-02T05:30:29.894Z,9.747432
2023-04-02T05:31:29.907Z,9.747458
2023-04-02T05:32:29.901Z,9.747355
2023-04-02T05:33:29.885Z,9.747405
2023-04-02T05:34:29.901Z,9.747305
2023-04-02T05:35:29.864Z,9.747415
2023-04-02T05:36:29.859Z,9.747340
2023-04-02T05:37:29.837Z,9.747324
2023-04-02T05:38:29.833Z,9.747437
2023-04-02T05:39:29.961Z,9.747376
2023-04-02T05:40:29.813Z,9.747198
2023-04-02T05:41:29.806Z,9.747355
2023-04-02T05:42:29.798Z,9.747357
2023-04-02T05:43:29.789Z,9.747197
2023-04-02T05:44:29.823Z,9.747348
2023-04-02T05:45:29.783Z,9.747214
2023-04-02T05:46:29.871Z,9.747301
2023-04-02T05:47:29.773Z,9.747337
2023-04-02T05:48:29.754Z,9.747373
2023-04-02T05:49:29.810Z,9.747273
2023-04-02T05:50:29.724Z,9.747421
2023-04-02T05:51:30.730Z,9.747389
2023-04-02T05:52:29.727Z,9.747478
2023-04-02T05:53:29.720Z,9.747401
2023-04-02T05:54:29.744Z,9.747363
2023-04-02T05:55:29.715Z,9.747275
2023-04-02T05:56:29.708Z,9.747305
2023-04-02T05:57:41.721Z,9.747417
2023-04-02T05:58:36.348Z,9.747305
2023-04-02T05:59:31.699Z,9.747374
2023-04-02T06:00:29.718Z,9.747422
2023-04-02T06:01:29.679Z,9.747350
2023-04-02T06:02:29.956Z,9.747450
2023-04-02T06:03:29.753Z,9.747415
2023-04-02T06:04:29.668Z,9.747449
2023-04-02T06:05:29.639Z,9.747313
2023-04-02T06:06:29.630Z,9.747300
2023-04-02T06:07:29.637Z,9.747349
2023-04-02T06:08:29.617Z,9.747487
2023-04-02T06:09:29.624Z,9.747479
2023-04-02T06:10:29.691Z,9.747540
2023-04-02T06:11:29.592Z,9.747499
2023-04-02T06:12:29.577Z,9.747427
2023-04-02T06:13:29.569Z,9.747387
2023-04-02T06:14:29.598Z,9.747234
2023-04-02T06:15:29.596Z,9.747246
2023-04-02T06:16:29.565Z,9.747242
2023-04-02T06:17:29.565Z,9.747324
2023-04-02T06:18:29.530Z,9.747407
2023-04-02T06:19:29.542Z,9.747355
2023-04-02T06:20:29.522Z,9.747408
2023-04-02T06:21:29.518Z,9.747578
2023-04-02T06:22:29.500Z,9.747445
2023-04-02T06:23:29.491Z,9.747328
2023-04-02T06:24:29.489Z,9.747459
2023-04-02T06:25:29.704Z,9.747477
2023-04-02T06:26:29.473Z,9.747546
2023-04-02T06:27:29.459Z,9.747489
2023-04-02T06:28:29.447Z,9.747422
2023-04-02T06:29:29.589Z,9.747476
2023-04-02T06:30:29.477Z,9.747414
2023-04-02T06:31:29.445Z,9.747386
2023-04-02T06:32:29.466Z,9.747371
2023-04-02T06:33:29.411Z,9.747515
2023-04-02T06:34:29.404Z,9.747490
2023-04-02T06:35:29.446Z,9.747293
2023-04-02T06:36:29.392Z,9.747276
2023-04-02T06:37:29.376Z,9.747329
2023-04-02T06:38:29.376Z,9.747195
2023-04-02T06:39:29.429Z,9.747109
2023-04-02T06:40:29.390Z,9.747117
2023-04-02T06:41:29.373Z,9.747331
2023-04-02T06:42:29.356Z,9.747393
2023-04-02T06:43:29.340Z,9.747349
2023-04-02T06:44:29.328Z,9.747375
2023-04-02T06:45:29.344Z,9.747398
2023-04-02T06:46:29.417Z,9.747376
2023-04-02T06:47:29.329Z,9.747421
2023-04-02T06:48:29.305Z,9.747462
2023-04-02T06:49:29.300Z,9.747467
2023-04-02T06:50:29.313Z,9.747425
2023-04-02T06:51:29.315Z,9.747347
2023-04-02T06:52:29.299Z,9.747414
2023-04-02T06:53:29.274Z,9.747291
2023-04-02T06:54:29.271Z,9.747382
2023-04-02T06:55:29.281Z,9.747375
2023-04-02T06:56:29.243Z,9.747361
2023-04-02T06:57:29.277Z,9.747390
2023-04-02T06:58:29.235Z,9.747394
2023-04-02T06:59:29.224Z,9.747343
2023-04-02T07:00:29.270Z,9.747438
2023-04-02T07:01:29.216Z,9.747272
2023-04-02T07:02:29.225Z,9.747271
2023-04-02T07:03:29.188Z,9.747368
2023-04-02T07:04:29.196Z,9.747376
2023-04-02T07:05:29.212Z,9.747346
2023-04-02T07:06:29.170Z,9.747234
2023-04-02T07:07:29.151Z,9.747321
2023-04-02T07:08:29.205Z,9.747300
2023-04-02T07:09:29.132Z,9.747310
2023-04-02T07:10:29.165Z,9.747294
2023-04-02T07:11:30.125Z,9.747393
2023-04-02T07:12:29.114Z,9.747175
2023-04-02T07:13:29.106Z,9.747381
2023-04-02T07:14:29.105Z,9.747491
2023-04-02T07:15:29.124Z,9.747406
2023-04-02T07:16:29.154Z,9.747321
2023-04-02T07:17:29.084Z,9.747301
2023-04-02T07:18:30.075Z,9.747330
2023-04-02T07:19:29.059Z,9.747341
2023-04-02T07:20:29.078Z,9.747252
2023-04-02T07:21:29.050Z,9.747077
2023-04-02T07:22:29.039Z,9.747211
2023-04-02T07:23:29.048Z,9.747247
2023-04-02T07:24:29.025Z,9.747217
2023-04-02T07:25:29.049Z,9.747183
2023-04-02T07:26:28.990Z,9.747313
2023-04-02T07:27:28.995Z,9.747330
2023-04-02T07:28:28.982Z,9.747342
2023-04-02T07:29:28.980Z,9.747316
2023-04-02T07:30:29.068Z,9.747302
2023-04-02T07:31:29.013Z,9.747341
2023-04-02T07:32:28.995Z,9.747243
2023-04-02T07:33:28.948Z,9.747356
2023-04-02T07:34:28.935Z,9.747274
2023-04-02T07:35:28.931Z,9.747310
2023-04-02T07:36:28.956Z,9.747261
2023-04-02T07:37:28.912Z,9.747251
2023-04-02T07:38:28.908Z,9.747287
2023-04-02T07:39:28.899Z,9.747396
2023-04-02T07:40:28.905Z,9.747365
2023-04-02T07:41:28.905Z,9.747566
2023-04-02T07:42:29.883Z,9.747676
2023-04-02T07:43:28.879Z,9.747475
2023-04-02T07:44:28.872Z,9.747445
2023-04-02T07:45:28.866Z,9.747453
2023-04-02T07:46:28.881Z,9.747286
2023-04-02T07:47:28.902Z,9.747452
2023-04-02T07:48:28.840Z,9.747459
2023-04-02T07:49:28.831Z,9.747401
2023-04-02T07:50:28.876Z,9.747405
2023-04-02T07:51:28.836Z,9.747246
2023-04-02T07:52:28.804Z,9.747422
2023-04-02T07:53:28.822Z,9.747425
2023-04-02T07:54:28.794Z,9.747444
2023-04-02T07:55:28.811Z,9.747483
2023-04-02T07:56:28.799Z,9.747475
2023-04-02T07:57:28.816Z,9.747397
2023-04-02T07:58:28.775Z,9.747320
2023-04-02T07:59:28.752Z,9.747298
2023-04-02T08:00:28.899Z,9.747213
2023-04-02T08:01:28.818Z,9.747421
2023-04-02T08:02:28.866Z,9.747346
2023-04-02T08:03:29.022Z,9.747208
2023-04-02T08:04:28.771Z,9.747331
2023-04-02T08:05:28.703Z,9.747490
2023-04-02T08:06:28.726Z,9.747316
2023-04-02T08:07:28.692Z,9.746889
2023-04-02T08:08:28.688Z,9.746608
2023-04-02T08:09:28.671Z,9.746838
2023-04-02T08:10:28.667Z,9.747575
2023-04-02T08:11:31.557Z,9.747501
2023-04-02T08:12:28.657Z,9.747238
2023-04-02T08:13:28.644Z,9.746932
2023-04-02T08:14:28.644Z,9.747141
2023-04-02T08:15:28.633Z,9.747481
2023-04-02T08:16:28.662Z,9.747461
2023-04-02T08:17:28.664Z,9.747355
2023-04-02T08:18:28.611Z,9.747421
2023-04-02T08:19:28.610Z,9.746778
2023-04-02T08:20:28.603Z,9.747128
2023-04-02T08:21:28.612Z,9.746720
2023-04-02T08:22:28.592Z,9.746840
2023-04-02T08:23:28.615Z,9.746911
2023-04-02T08:24:28.566Z,9.746950
2023-04-02T08:25:28.563Z,9.746874
2023-04-02T08:26:28.581Z,9.747109
2023-04-02T08:27:28.562Z,9.746662
2023-04-02T08:28:28.539Z,9.746607
2023-04-02T08:29:28.540Z,9.746582
2023-04-02T08:30:28.543Z,9.746862
2023-04-02T08:31:28.564Z,9.747231
2023-04-02T08:32:28.555Z,9.747095
2023-04-02T08:33:28.573Z,9.746796
2023-04-02T08:34:28.494Z,9.747287
2023-04-02T08:35:28.486Z,9.746893
2023-04-02T08:36:28.670Z,9.746617
2023-04-02T08:37:28.474Z,9.746926
2023-04-02T08:38:28.460Z,9.747110
2023-04-02T08:39:29.481Z,9.747099
2023-04-02T08:40:28.448Z,9.747319
2023-04-02T08:41:28.476Z,9.747689
2023-04-02T08:42:28.440Z,9.747345
2023-04-02T08:43:28.438Z,9.747490
2023-04-02T08:44:28.439Z,9.747315
2023-04-02T08:45:28.406Z,9.747465
2023-04-02T08:46:28.452Z,9.747516
2023-04-02T08:47:28.429Z,9.747331
2023-04-02T08:48:28.390Z,9.747540
2023-04-02T08:49:28.387Z,9.747628
2023-04-02T08:50:28.370Z,9.747504
2023-04-02T08:51:28.401Z,9.747690
2023-04-02T08:52:28.364Z,9.747706
2023-04-02T08:53:28.351Z,9.747482
2023-04-02T08:54:28.351Z,9.748542
2023-04-02T08:55:28.339Z,9.748182
2023-04-02T08:56:28.361Z,9.747817
2023-04-02T08:57:28.383Z,9.748402
2023-04-02T08:58:28.316Z,9.748225
2023-04-02T08:59:28.314Z,9.747966
2023-04-02T09:00:28.300Z,9.747456
2023-04-02T09:01:28.348Z,9.747490
2023-04-02T09:02:28.378Z,9.747560
2023-04-02T09:03:28.323Z,9.747430
2023-04-02T09:04:28.301Z,9.747521
2023-04-02T09:05:28.261Z,9.747532
2023-04-02T09:06:28.280Z,9.747523
2023-04-02T09:07:28.242Z,9.747578
2023-04-02T09:08:28.244Z,9.747531
2023-04-02T09:09:28.256Z,9.747458
2023-04-02T09:10:28.221Z,9.747520
2023-04-02T09:11:28.218Z,9.747398
2023-04-02T09:12:28.253Z,9.747374
2023-04-02T09:13:28.202Z,9.747429
2023-04-02T09:14:28.203Z,9.747627
2023-04-02T09:15:28.195Z,9.747596
2023-04-02T09:16:28.228Z,9.747634
2023-04-02T09:17:28.524Z,9.747704
2023-04-02T09:18:28.239Z,9.747553
2023-04-02T09:19:28.160Z,9.747587
2023-04-02T09:20:28.150Z,9.747566
2023-04-02T09:21:28.141Z,9.747473
2023-04-02T09:22:28.154Z,9.747422
2023-04-02T09:23:28.128Z,9.747385
2023-04-02T09:24:28.117Z,9.747399
2023-04-02T09:25:28.135Z,9.747650
2023-04-02T09:26:28.155Z,9.747512
2023-04-02T09:27:28.131Z,9.747580
2023-04-02T09:28:28.087Z,9.747697
2023-04-02T09:29:28.075Z,9.747650
2023-04-02T09:30:29.067Z,9.747445
2023-04-02T09:31:28.104Z,9.747627
2023-04-02T09:32:28.163Z,9.747496
2023-04-02T09:33:28.057Z,9.747602
2023-04-02T09:34:28.044Z,9.747609
2023-04-02T09:35:28.036Z,9.747620
2023-04-02T09:36:28.034Z,9.747567
2023-04-02T09:37:29.052Z,9.747694
2023-04-02T09:38:28.020Z,9.747434
2023-04-02T09:39:28.014Z,9.747318
2023-04-02T09:40:27.995Z,9.747507
2023-04-02T09:41:27.999Z,9.747613
2023-04-02T09:42:28.011Z,9.747439
2023-04-02T09:43:27.977Z,9.747453
2023-04-02T09:44:28.025Z,9.747413
2023-04-02T09:45:27.960Z,9.747552
2023-04-02T09:46:27.980Z,9.747500
2023-04-02T09:47:28.030Z,9.747527
2023-04-02T09:48:27.944Z,9.747559
2023-04-02T09:49:27.926Z,9.747477
2023-04-02T09:50:27.916Z,9.747514
2023-04-02T09:51:27.929Z,9.747429
2023-04-02T09:52:27.935Z,9.747488
2023-04-02T09:53:27.933Z,9.747437
2023-04-02T09:54:27.879Z,9.747504
2023-04-02T09:55:27.873Z,9.747364
2023-04-02T09:56:27.873Z,9.747458
2023-04-02T09:57:27.918Z,9.747484
2023-04-02T09:58:27.852Z,9.747499
2023-04-02T09:59:27.861Z,9.747491
2023-04-02T10:00:31.945Z,9.747490
2023-04-02T10:01:28.939Z,9.747503
2023-04-02T10:02:27.880Z,9.747461
2023-04-02T10:03:27.841Z,9.747458
2023-04-02T10:04:27.821Z,9.747501
2023-04-02T10:05:40.003Z,9.747482
2023-04-02T10:06:29.804Z,9.747365
2023-04-02T10:07:27.808Z,9.747461
2023-04-02T10:08:27.782Z,9.747495
2023-04-02T10:09:27.753Z,9.747405
2023-04-02T10:10:27.756Z,9.747275
2023-04-02T10:11:36.578Z,9.747227
2023-04-02T10:12:29.763Z,9.747447
2023-04-02T10:13:27.729Z,9.747464
2023-04-02T10:14:27.739Z,9.747373
2023-04-02T10:15:27.742Z,9.747393
2023-04-02T10:16:27.774Z,9.747601
2023-04-02T10:17:27.751Z,9.747419
2023-04-02T10:18:27.696Z,9.747357
2023-04-02T10:19:27.682Z,9.747518
2023-04-02T10:20:28.483Z,9.747448
2023-04-02T10:21:27.673Z,9.747308
2023-04-02T10:22:27.706Z,9.747483
2023-04-02T10:23:27.666Z,9.747397
2023-04-02T10:24:27.652Z,9.747396
2023-04-02T10:25:27.636Z,9.747426
2023-04-02T10:26:27.640Z,9.747375
2023-04-02T10:27:27.635Z,9.747375
2023-04-02T10:28:27.653Z,9.747450
2023-04-02T10:29:27.610Z,9.747434
2023-04-02T10:30:27.613Z,9.747430
2023-04-02T10:31:27.641Z,9.747408
2023-04-02T10:32:27.634Z,9.747428
2023-04-02T10:33:27.607Z,9.747372
2023-04-02T10:34:27.590Z,9.747431
2023-04-02T10:35:27.626Z,9.747409
2023-04-02T10:36:27.566Z,9.747419
2023-04-02T10:37:37.155Z,9.747345
2023-04-02T10:38:27.544Z,9.747334
2023-04-02T10:39:27.541Z,9.747284
2023-04-02T10:40:27.538Z,9.747382
2023-04-02T10:41:27.548Z,9.747335
2023-04-02T10:42:27.519Z,9.747303
2023-04-02T10:43:27.534Z,9.747290
2023-04-02T10:44:27.503Z,9.747264
2023-04-02T10:45:27.490Z,9.747336
2023-04-02T10:46:27.496Z,9.747325
2023-04-02T10:47:27.534Z,9.747308
2023-04-02T10:48:27.502Z,9.747376
2023-04-02T10:49:27.520Z,9.747362
2023-04-02T10:50:27.460Z,9.747376
2023-04-02T10:51:27.504Z,9.747272
2023-04-02T10:52:27.437Z,9.747387
2023-04-02T10:53:27.455Z,9.747353
2023-04-02T10:54:27.444Z,9.747260
2023-04-02T10:55:27.417Z,9.747332
2023-04-02T10:56:28.527Z,9.747297
2023-04-02T10:57:27.433Z,9.747360
2023-04-02T10:58:27.425Z,9.747345
2023-04-02T10:59:27.379Z,9.747210
2023-04-02T11:00:28.386Z,9.747311
2023-04-02T11:01:27.381Z,9.747295
2023-04-02T11:02:27.472Z,9.747341
2023-04-02T11:03:27.475Z,9.747348
2023-04-02T11:04:27.350Z,9.747407
2023-04-02T11:05:27.444Z,9.747471
2023-04-02T11:06:28.463Z,9.747405
2023-04-02T11:07:27.358Z,9.747389
2023-04-02T11:08:27.346Z,9.747338
2023-04-02T11:09:27.317Z,9.747425
2023-04-02T11:10:27.325Z,9.747382
2023-04-02T11:11:27.316Z,9.747502
2023-04-02T11:12:27.300Z,9.747495
2023-04-02T11:13:27.318Z,9.747427
2023-04-02T11:14:27.275Z,9.747377
2023-04-02T11:15:27.272Z,9.747432
2023-04-02T11:16:27.301Z,9.747415
2023-04-02T11:17:27.308Z,9.747461
2023-04-02T11:18:27.274Z,9.747422
2023-04-02T11:19:27.232Z,9.747403
2023-04-02T11:20:27.228Z,9.747465
2023-04-02T11:21:27.227Z,9.747440
2023-04-02T11:22:27.219Z,9.747478
2023-04-02T11:23:27.266Z,9.747439
2023-04-02T11:24:27.229Z,9.747441
2023-04-02T11:25:27.204Z,9.747352
2023-04-02T11:26:27.191Z,9.747459
2023-04-02T11:27:27.198Z,9.747375
2023-04-02T11:28:27.199Z,9.747486
2023-04-02T11:29:27.174Z,9.747497
2023-04-02T11:30:27.157Z,9.747453
2023-04-02T11:31:27.246Z,9.747512
2023-04-02T11:32:27.245Z,9.747361
2023-04-02T11:33:36.540Z,9.747492
2023-04-02T11:34:28.122Z,9.747498
2023-04-02T11:35:27.133Z,9.747572
2023-04-02T11:36:27.123Z,9.747472
2023-04-02T11:37:27.105Z,9.747416
2023-04-02T11:38:27.117Z,9.747532
2023-04-02T11:39:27.088Z,9.747378
2023-04-02T11:40:27.084Z,9.747458
2023-04-02T11:41:27.069Z,9.747557
2023-04-02T11:42:27.079Z,9.747461
2023-04-02T11:43:27.088Z,9.747566
2023-04-02T11:44:27.069Z,9.747478